sensor_id;sensor_type;location;lat;lon;timestamp;pressure;altitude;pressure_sealevel;temperature;humidity
21838;BME280;11081;45.946;6.140;2023-06-14T00:02:10;94570.19;;;19.23;84.34
21838;BME280;11081;45.946;6.140;2023-06-14T00:04:39;94572.72;;;19.28;83.88
21838;BME280;11081;45.946;6.140;2023-06-14T00:07:08;94576.84;;;19.34;83.56
21838;BME280;11081;45.946;6.140;2023-06-14T00:09:39;94581.03;;;19.40;82.99
21838;BME280;11081;45.946;6.140;2023-06-14T00:12:08;94579.75;;;19.38;83.43
21838;BME280;11081;45.946;6.140;2023-06-14T00:14:36;94577.09;;;19.38;83.66
21838;BME280;11081;45.946;6.140;2023-06-14T00:17:05;94583.16;;;19.38;83.51
21838;BME280;11081;45.946;6.140;2023-06-14T00:19:34;94581.59;;;19.37;83.62
21838;BME280;11081;45.946;6.140;2023-06-14T00:22:03;94580.00;;;19.36;83.58
21838;BME280;11081;45.946;6.140;2023-06-14T00:24:32;94577.09;;;19.38;83.89
21838;BME280;11081;45.946;6.140;2023-06-14T00:26:59;94588.47;;;19.38;84.44
21838;BME280;11081;45.946;6.140;2023-06-14T00:29:28;94579.59;;;19.29;84.92
21838;BME280;11081;45.946;6.140;2023-06-14T00:31:57;94578.41;;;19.22;84.60
21838;BME280;11081;45.946;6.140;2023-06-14T00:34:27;94583.50;;;19.18;84.96
21838;BME280;11081;45.946;6.140;2023-06-14T00:36:55;94577.72;;;19.16;85.09
21838;BME280;11081;45.946;6.140;2023-06-14T00:39:23;94582.56;;;19.09;85.30
21838;BME280;11081;45.946;6.140;2023-06-14T00:41:51;94575.19;;;19.06;85.97
21838;BME280;11081;45.946;6.140;2023-06-14T00:44:19;94572.06;;;19.04;86.06
21838;BME280;11081;45.946;6.140;2023-06-14T00:46:48;94572.28;;;18.88;86.70
21838;BME280;11081;45.946;6.140;2023-06-14T00:49:17;94572.84;;;18.85;86.52
21838;BME280;11081;45.946;6.140;2023-06-14T00:51:47;94564.34;;;18.88;86.35
21838;BME280;11081;45.946;6.140;2023-06-14T00:54:15;94569.50;;;18.99;85.89
21838;BME280;11081;45.946;6.140;2023-06-14T00:56:43;94569.91;;;19.06;85.79
21838;BME280;11081;45.946;6.140;2023-06-14T00:59:12;94570.31;;;19.13;85.65
21838;BME280;11081;45.946;6.140;2023-06-14T01:01:40;94566.03;;;19.17;86.03
21838;BME280;11081;45.946;6.140;2023-06-14T01:04:08;94567.03;;;19.21;86.57
21838;BME280;11081;45.946;6.140;2023-06-14T01:06:43;94563.09;;;19.18;87.55
21838;BME280;11081;45.946;6.140;2023-06-14T01:09:18;94570.56;;;19.16;87.73
21838;BME280;11081;45.946;6.140;2023-06-14T01:12:00;94578.25;;;19.13;87.63
21838;BME280;11081;45.946;6.140;2023-06-14T01:14:33;94566.88;;;19.12;87.80
21838;BME280;11081;45.946;6.140;2023-06-14T01:17:02;94572.47;;;19.11;88.25
21838;BME280;11081;45.946;6.140;2023-06-14T01:19:32;94570.13;;;19.09;88.00
21838;BME280;11081;45.946;6.140;2023-06-14T01:22:02;94569.31;;;19.09;88.63
21838;BME280;11081;45.946;6.140;2023-06-14T01:24:31;94573.06;;;19.08;89.05
21838;BME280;11081;45.946;6.140;2023-06-14T01:27:02;94566.78;;;19.04;90.00
21838;BME280;11081;45.946;6.140;2023-06-14T01:29:30;94566.34;;;18.97;90.93
21838;BME280;11081;45.946;6.140;2023-06-14T01:31:59;94563.91;;;18.81;91.66
21838;BME280;11081;45.946;6.140;2023-06-14T01:34:30;94567.06;;;18.83;91.84
21838;BME280;11081;45.946;6.140;2023-06-14T01:37:00;94563.25;;;18.89;91.55
21838;BME280;11081;45.946;6.140;2023-06-14T01:39:32;94566.06;;;18.98;91.21
21838;BME280;11081;45.946;6.140;2023-06-14T01:42:01;94572.06;;;19.04;91.16
21838;BME280;11081;45.946;6.140;2023-06-14T01:44:31;94569.91;;;19.06;91.39
21838;BME280;11081;45.946;6.140;2023-06-14T01:47:00;94572.06;;;19.04;91.60
21838;BME280;11081;45.946;6.140;2023-06-14T01:49:28;94572.06;;;19.04;90.84
21838;BME280;11081;45.946;6.140;2023-06-14T01:51:56;94565.19;;;19.03;90.57
21838;BME280;11081;45.946;6.140;2023-06-14T01:54:24;94558.34;;;19.02;91.07
21838;BME280;11081;45.946;6.140;2023-06-14T01:56:56;94563.19;;;18.95;91.31
21838;BME280;11081;45.946;6.140;2023-06-14T01:59:25;94566.47;;;18.86;91.56
21838;BME280;11081;45.946;6.140;2023-06-14T02:01:52;94561.00;;;18.83;91.76
21838;BME280;11081;45.946;6.140;2023-06-14T02:04:21;94565.50;;;18.82;91.94
21838;BME280;11081;45.946;6.140;2023-06-14T02:06:48;94565.28;;;18.79;92.64
21838;BME280;11081;45.946;6.140;2023-06-14T02:09:17;94571.56;;;18.83;92.08
21838;BME280;11081;45.946;6.140;2023-06-14T02:11:45;94567.47;;;18.91;91.95
21838;BME280;11081;45.946;6.140;2023-06-14T02:14:15;94565.81;;;18.95;91.34
21838;BME280;11081;45.946;6.140;2023-06-14T02:16:43;94571.66;;;18.97;91.41
21838;BME280;11081;45.946;6.140;2023-06-14T02:19:16;94570.06;;;18.96;91.53
21838;BME280;11081;45.946;6.140;2023-06-14T02:21:45;94569.50;;;18.99;91.34
21838;BME280;11081;45.946;6.140;2023-06-14T02:24:13;94571.06;;;19.00;91.56
21838;BME280;11081;45.946;6.140;2023-06-14T02:26:42;94574.78;;;18.99;91.35
21838;BME280;11081;45.946;6.140;2023-06-14T02:29:15;94570.00;;;19.01;90.99
21838;BME280;11081;45.946;6.140;2023-06-14T02:31:43;94568.91;;;19.02;91.16
21838;BME280;11081;45.946;6.140;2023-06-14T02:34:13;94569.69;;;19.02;91.22
21838;BME280;11081;45.946;6.140;2023-06-14T02:36:46;94573.63;;;19.05;91.13
21838;BME280;11081;45.946;6.140;2023-06-14T02:39:14;94566.78;;;19.04;91.72
21838;BME280;11081;45.946;6.140;2023-06-14T02:41:43;94571.06;;;19.00;91.55
21838;BME280;11081;45.946;6.140;2023-06-14T02:44:12;94573.13;;;19.03;91.28
21838;BME280;11081;45.946;6.140;2023-06-14T02:46:43;94567.56;;;19.04;91.46
21838;BME280;11081;45.946;6.140;2023-06-14T02:49:11;94568.34;;;19.05;91.39
21838;BME280;11081;45.946;6.140;2023-06-14T02:51:39;94569.91;;;19.06;91.39
21838;BME280;11081;45.946;6.140;2023-06-14T02:54:07;94568.34;;;19.05;91.56
21838;BME280;11081;45.946;6.140;2023-06-14T02:56:38;94574.22;;;19.02;91.85
21838;BME280;11081;45.946;6.140;2023-06-14T02:59:07;94574.78;;;18.99;92.08
21838;BME280;11081;45.946;6.140;2023-06-14T03:01:37;94568.41;;;19.00;92.06
21838;BME280;11081;45.946;6.140;2023-06-14T03:04:11;94568.91;;;19.02;91.50
21838;BME280;11081;45.946;6.140;2023-06-14T03:06:41;94574.22;;;19.02;91.77
21838;BME280;11081;45.946;6.140;2023-06-14T03:09:12;94572.63;;;19.01;91.79
21838;BME280;11081;45.946;6.140;2023-06-14T03:11:40;94570.28;;;18.99;92.10
21838;BME280;11081;45.946;6.140;2023-06-14T03:14:08;94571.84;;;19.00;91.78
21838;BME280;11081;45.946;6.140;2023-06-14T03:16:38;94585.38;;;18.99;91.91
21838;BME280;11081;45.946;6.140;2023-06-14T03:19:11;94582.50;;;18.95;92.52
21838;BME280;11081;45.946;6.140;2023-06-14T03:21:40;94578.63;;;18.87;92.82
21838;BME280;11081;45.946;6.140;2023-06-14T03:24:11;94586.06;;;18.85;92.82
21838;BME280;11081;45.946;6.140;2023-06-14T03:26:40;94589.22;;;18.87;92.83
21838;BME280;11081;45.946;6.140;2023-06-14T03:29:08;94597.06;;;18.93;92.39
21838;BME280;11081;45.946;6.140;2023-06-14T03:31:41;94591.28;;;18.91;92.58
21838;BME280;11081;45.946;6.140;2023-06-14T03:34:25;94592.50;;;18.79;92.71
21838;BME280;11081;45.946;6.140;2023-06-14T03:36:54;94594.66;;;18.77;93.25
21838;BME280;11081;45.946;6.140;2023-06-14T03:39:22;94594.69;;;18.72;93.43
21838;BME280;11081;45.946;6.140;2023-06-14T03:41:50;94600.19;;;18.57;94.03
21838;BME280;11081;45.946;6.140;2023-06-14T03:44:20;94596.47;;;18.58;94.15
21838;BME280;11081;45.946;6.140;2023-06-14T03:46:48;94596.47;;;18.58;93.81
21838;BME280;11081;45.946;6.140;2023-06-14T03:49:16;94596.00;;;18.51;93.81
21838;BME280;11081;45.946;6.140;2023-06-14T03:51:46;94599.41;;;18.56;93.88
21838;BME280;11081;45.946;6.140;2023-06-14T03:54:21;94597.53;;;18.57;93.17
21838;BME280;11081;45.946;6.140;2023-06-14T03:56:53;94588.03;;;18.56;93.06
21838;BME280;11081;45.946;6.140;2023-06-14T03:59:21;94585.91;;;18.58;92.50
21838;BME280;11081;45.946;6.140;2023-06-14T04:01:49;94592.75;;;18.59;92.17
21838;BME280;11081;45.946;6.140;2023-06-14T04:04:17;94597.47;;;18.62;91.73
21838;BME280;11081;45.946;6.140;2023-06-14T04:06:46;94599.06;;;18.63;91.72
21838;BME280;11081;45.946;6.140;2023-06-14T04:09:16;94603.31;;;18.59;91.48
21838;BME280;11081;45.946;6.140;2023-06-14T04:11:45;94604.69;;;18.56;91.51
21838;BME280;11081;45.946;6.140;2023-06-14T04:14:13;94602.31;;;18.55;91.36
21838;BME280;11081;45.946;6.140;2023-06-14T04:16:41;94604.44;;;18.53;91.38
21838;BME280;11081;45.946;6.140;2023-06-14T04:19:09;94605.00;;;18.50;91.37
21838;BME280;11081;45.946;6.140;2023-06-14T04:21:37;94605.59;;;18.47;91.51
21838;BME280;11081;45.946;6.140;2023-06-14T04:24:07;94607.16;;;18.48;91.42
21838;BME280;11081;45.946;6.140;2023-06-14T04:26:41;94604.59;;;18.43;91.89
21838;BME280;11081;45.946;6.140;2023-06-14T04:29:12;94607.50;;;18.41;91.98
21838;BME280;11081;45.946;6.140;2023-06-14T04:31:47;94613.59;;;18.42;91.89
21838;BME280;11081;45.946;6.140;2023-06-14T04:34:16;94613.00;;;18.45;91.64
21838;BME280;11081;45.946;6.140;2023-06-14T04:36:53;94618.28;;;18.45;92.01
21838;BME280;11081;45.946;6.140;2023-06-14T04:39:30;94618.28;;;18.45;91.88
21838;BME280;11081;45.946;6.140;2023-06-14T04:42:00;94618.28;;;18.45;91.90
21838;BME280;11081;45.946;6.140;2023-06-14T04:44:31;94622.50;;;18.46;91.66
21838;BME280;11081;45.946;6.140;2023-06-14T04:47:01;94619.06;;;18.45;91.86
21838;BME280;11081;45.946;6.140;2023-06-14T04:49:29;94621.44;;;18.47;91.49
21838;BME280;11081;45.946;6.140;2023-06-14T04:52:00;94625.16;;;18.46;91.25
21838;BME280;11081;45.946;6.140;2023-06-14T04:54:39;94621.56;;;18.37;89.43
21838;BME280;11081;45.946;6.140;2023-06-14T04:57:11;94621.69;;;18.26;88.63
21838;BME280;11081;45.946;6.140;2023-06-14T04:59:42;94621.81;;;18.16;87.23
21838;BME280;11081;45.946;6.140;2023-06-14T05:02:11;94627.69;;;18.08;86.74
21838;BME280;11081;45.946;6.140;2023-06-14T05:04:39;94628.31;;;18.00;85.04
21838;BME280;11081;45.946;6.140;2023-06-14T05:07:08;94627.59;;;17.89;83.96
21838;BME280;11081;45.946;6.140;2023-06-14T05:09:38;94624.22;;;17.84;83.70
21838;BME280;11081;45.946;6.140;2023-06-14T05:12:07;94638.50;;;17.83;83.11
21838;BME280;11081;45.946;6.140;2023-06-14T05:14:36;94626.94;;;17.79;82.36
21838;BME280;11081;45.946;6.140;2023-06-14T05:17:05;94629.63;;;17.74;82.48
21838;BME280;11081;45.946;6.140;2023-06-14T05:19:33;94629.63;;;17.74;82.15
21838;BME280;11081;45.946;6.140;2023-06-14T05:22:02;94636.47;;;17.75;81.56
21838;BME280;11081;45.946;6.140;2023-06-14T05:24:30;94638.09;;;17.71;81.17
21838;BME280;11081;45.946;6.140;2023-06-14T05:27:00;94633.31;;;17.73;80.37
21838;BME280;11081;45.946;6.140;2023-06-14T05:29:28;94633.31;;;17.73;80.49
21838;BME280;11081;45.946;6.140;2023-06-14T05:31:56;94633.84;;;17.75;80.55
21838;BME280;11081;45.946;6.140;2023-06-14T05:34:25;94638.59;;;17.73;80.18
21838;BME280;11081;45.946;6.140;2023-06-14T05:36:53;94635.97;;;17.73;79.55
21838;BME280;11081;45.946;6.140;2023-06-14T05:39:22;94639.63;;;17.77;79.36
21838;BME280;11081;45.946;6.140;2023-06-14T05:41:50;94636.69;;;17.78;79.32
21838;BME280;11081;45.946;6.140;2023-06-14T05:44:20;94631.09;;;17.85;78.35
21838;BME280;11081;45.946;6.140;2023-06-14T05:46:48;94631.88;;;17.85;78.15
21838;BME280;11081;45.946;6.140;2023-06-14T05:49:16;94642.25;;;17.77;78.64
21838;BME280;11081;45.946;6.140;2023-06-14T05:51:44;94640.19;;;17.68;78.75
21838;BME280;11081;45.946;6.140;2023-06-14T05:54:12;94647.63;;;17.61;79.11
21838;BME280;11081;45.946;6.140;2023-06-14T05:56:40;94646.63;;;17.57;79.16
21838;BME280;11081;45.946;6.140;2023-06-14T05:59:08;94642.91;;;17.58;78.70
21838;BME280;11081;45.946;6.140;2023-06-14T06:01:37;94638.63;;;17.67;78.17
21838;BME280;11081;45.946;6.140;2023-06-14T06:04:07;94646.47;;;17.78;77.77
21838;BME280;11081;45.946;6.140;2023-06-14T06:06:35;94641.59;;;17.90;78.06
21838;BME280;11081;45.946;6.140;2023-06-14T06:09:03;94647.06;;;17.98;78.95
21838;BME280;11081;45.946;6.140;2023-06-14T06:11:31;94654.59;;;18.10;79.76
21838;BME280;11081;45.946;6.140;2023-06-14T06:14:14;94647.09;;;18.22;80.54
21838;BME280;11081;45.946;6.140;2023-06-14T06:16:43;94652.72;;;18.40;81.26
21838;BME280;11081;45.946;6.140;2023-06-14T06:19:12;94653.63;;;18.54;81.89
21838;BME280;11081;45.946;6.140;2023-06-14T06:21:40;94649.22;;;18.68;81.80
21838;BME280;11081;45.946;6.140;2023-06-14T06:24:08;94651.69;;;18.83;81.72
21838;BME280;11081;45.946;6.140;2023-06-14T06:26:36;94654.94;;;18.99;81.49
21838;BME280;11081;45.946;6.140;2023-06-14T06:29:05;94657.72;;;19.08;81.61
21838;BME280;11081;45.946;6.140;2023-06-14T06:31:33;94662.88;;;19.18;79.87
21838;BME280;11081;45.946;6.140;2023-06-14T06:34:03;94662.63;;;19.33;79.25
21838;BME280;11081;45.946;6.140;2023-06-14T06:36:31;94661.41;;;19.44;79.42
21838;BME280;11081;45.946;6.140;2023-06-14T06:38:59;94656.53;;;19.52;80.03
21838;BME280;11081;45.946;6.140;2023-06-14T06:41:27;94665.44;;;19.61;79.91
21838;BME280;11081;45.946;6.140;2023-06-14T06:43:55;94663.09;;;19.73;78.80
21838;BME280;11081;45.946;6.140;2023-06-14T06:46:28;94669.41;;;19.77;76.58
21838;BME280;11081;45.946;6.140;2023-06-14T06:48:56;94657.66;;;19.83;75.86
21838;BME280;11081;45.946;6.140;2023-06-14T06:51:25;94658.66;;;19.87;75.38
21838;BME280;11081;45.946;6.140;2023-06-14T06:53:53;94667.00;;;19.62;74.87
21838;BME280;11081;45.946;6.140;2023-06-14T06:56:21;94662.06;;;19.55;72.98
21838;BME280;11081;45.946;6.140;2023-06-14T06:58:50;94673.28;;;19.66;72.14
21838;BME280;11081;45.946;6.140;2023-06-14T07:01:18;94666.25;;;19.75;72.18
21838;BME280;11081;45.946;6.140;2023-06-14T07:03:47;94680.56;;;19.74;70.28
21838;BME280;11081;45.946;6.140;2023-06-14T07:06:15;94677.50;;;19.67;70.04
21838;BME280;11081;45.946;6.140;2023-06-14T07:08:46;94683.72;;;19.76;70.19
21838;BME280;11081;45.946;6.140;2023-06-14T07:11:15;94681.56;;;19.78;69.68
21838;BME280;11081;45.946;6.140;2023-06-14T07:13:43;94686.31;;;19.81;67.90
21838;BME280;11081;45.946;6.140;2023-06-14T07:16:12;94682.72;;;19.72;68.02
21838;BME280;11081;45.946;6.140;2023-06-14T07:18:40;94683.31;;;19.69;66.47
21838;BME280;11081;45.946;6.140;2023-06-14T07:21:08;94678.41;;;19.76;66.30
21838;BME280;11081;45.946;6.140;2023-06-14T07:23:36;94686.72;;;19.88;66.05
21838;BME280;11081;45.946;6.140;2023-06-14T07:26:05;94685.97;;;20.01;65.31
21838;BME280;11081;45.946;6.140;2023-06-14T07:28:33;94683.97;;;19.93;65.94
21838;BME280;11081;45.946;6.140;2023-06-14T07:31:03;94679.00;;;19.73;65.04
21838;BME280;11081;45.946;6.140;2023-06-14T07:33:31;94684.50;;;19.76;61.76
21838;BME280;11081;45.946;6.140;2023-06-14T07:36:00;94685.13;;;19.87;61.96
21838;BME280;11081;45.946;6.140;2023-06-14T07:38:28;94686.13;;;19.91;61.52
21838;BME280;11081;45.946;6.140;2023-06-14T07:40:56;94678.75;;;19.88;58.98
21838;BME280;11081;45.946;6.140;2023-06-14T07:43:25;94679.66;;;19.97;58.89
21838;BME280;11081;45.946;6.140;2023-06-14T07:45:53;94688.91;;;20.00;56.71
21838;BME280;11081;45.946;6.140;2023-06-14T07:48:33;94690.69;;;20.04;54.86
21838;BME280;11081;45.946;6.140;2023-06-14T07:51:01;94691.47;;;20.19;55.29
21838;BME280;11081;45.946;6.140;2023-06-14T07:53:29;94684.59;;;20.18;55.76
21838;BME280;11081;45.946;6.140;2023-06-14T07:55:58;94684.03;;;20.21;55.86
21838;BME280;11081;45.946;6.140;2023-06-14T07:58:27;94695.44;;;20.35;54.89
21838;BME280;11081;45.946;6.140;2023-06-14T08:00:55;94690.13;;;20.35;55.76
21838;BME280;11081;45.946;6.140;2023-06-14T08:03:23;94686.41;;;20.22;55.45
21838;BME280;11081;45.946;6.140;2023-06-14T08:05:52;94690.91;;;20.22;54.30
21838;BME280;11081;45.946;6.140;2023-06-14T08:08:20;94692.38;;;20.28;53.43
21838;BME280;11081;45.946;6.140;2023-06-14T08:10:48;94691.66;;;20.41;53.18
21838;BME280;11081;45.946;6.140;2023-06-14T08:13:16;94686.25;;;20.46;52.80
21838;BME280;11081;45.946;6.140;2023-06-14T08:15:45;94687.22;;;20.50;52.65
21838;BME280;11081;45.946;6.140;2023-06-14T08:18:13;94680.38;;;20.49;52.07
21838;BME280;11081;45.946;6.140;2023-06-14T08:20:41;94671.13;;;20.60;52.63
21838;BME280;11081;45.946;6.140;2023-06-14T08:23:10;94680.47;;;20.72;51.91
21838;BME280;11081;45.946;6.140;2023-06-14T08:25:38;94678.19;;;20.79;50.81
21838;BME280;11081;45.946;6.140;2023-06-14T08:28:06;94686.44;;;20.91;51.30
21838;BME280;11081;45.946;6.140;2023-06-14T08:30:34;94687.78;;;21.02;51.29
21838;BME280;11081;45.946;6.140;2023-06-14T08:33:04;94690.56;;;20.97;50.05
21838;BME280;11081;45.946;6.140;2023-06-14T08:35:42;94686.81;;;20.98;50.03
21838;BME280;11081;45.946;6.140;2023-06-14T08:38:10;94689.63;;;21.15;50.46
21838;BME280;11081;45.946;6.140;2023-06-14T08:40:40;94682.03;;;21.22;49.41
21838;BME280;11081;45.946;6.140;2023-06-14T08:43:09;94685.25;;;21.24;50.32
21838;BME280;11081;45.946;6.140;2023-06-14T08:45:37;94674.97;;;21.18;49.54
21838;BME280;11081;45.946;6.140;2023-06-14T08:48:07;94686.22;;;21.28;49.13
21838;BME280;11081;45.946;6.140;2023-06-14T08:50:37;94680.84;;;21.42;49.96
21838;BME280;11081;45.946;6.140;2023-06-14T08:53:11;94675.38;;;21.61;49.38
21838;BME280;11081;45.946;6.140;2023-06-14T08:55:46;94678.56;;;21.72;49.26
21838;BME280;11081;45.946;6.140;2023-06-14T08:58:16;94676.44;;;21.60;49.35
21838;BME280;11081;45.946;6.140;2023-06-14T09:00:46;94687.06;;;21.60;48.22
21838;BME280;11081;45.946;6.140;2023-06-14T09:03:15;94688.03;;;21.64;49.02
21838;BME280;11081;45.946;6.140;2023-06-14T09:05:43;94689.25;;;21.58;46.96
21838;BME280;11081;45.946;6.140;2023-06-14T09:08:12;94686.72;;;21.53;46.94
21838;BME280;11081;45.946;6.140;2023-06-14T09:10:40;94682.16;;;21.67;47.05
21838;BME280;11081;45.946;6.140;2023-06-14T09:13:08;94681.06;;;21.90;46.19
21838;BME280;11081;45.946;6.140;2023-06-14T09:15:36;94681.78;;;22.05;46.06
21838;BME280;11081;45.946;6.140;2023-06-14T09:18:04;94680.91;;;22.18;45.99
21838;BME280;11081;45.946;6.140;2023-06-14T09:20:35;94683.19;;;22.33;46.39
21838;BME280;11081;45.946;6.140;2023-06-14T09:23:04;94681.97;;;22.39;46.49
21838;BME280;11081;45.946;6.140;2023-06-14T09:25:41;94688.91;;;22.18;44.16
21838;BME280;11081;45.946;6.140;2023-06-14T09:28:10;94693.97;;;22.06;46.41
21838;BME280;11081;45.946;6.140;2023-06-14T09:30:38;94677.44;;;22.09;45.86
21838;BME280;11081;45.946;6.140;2023-06-14T09:33:07;94689.72;;;22.27;45.71
21838;BME280;11081;45.946;6.140;2023-06-14T09:35:36;94692.28;;;22.41;45.58
21838;BME280;11081;45.946;6.140;2023-06-14T09:38:04;94692.59;;;22.39;45.88
21838;BME280;11081;45.946;6.140;2023-06-14T09:40:35;94688.09;;;22.48;44.84
21838;BME280;11081;45.946;6.140;2023-06-14T09:43:07;94692.22;;;22.55;44.17
21838;BME280;11081;45.946;6.140;2023-06-14T09:45:38;94691.44;;;22.63;44.05
21838;BME280;11081;45.946;6.140;2023-06-14T09:48:07;94688.31;;;22.61;43.78
21838;BME280;11081;45.946;6.140;2023-06-14T09:50:39;94685.31;;;22.54;43.93
21838;BME280;11081;45.946;6.140;2023-06-14T09:53:10;94696.75;;;22.63;43.44
21838;BME280;11081;45.946;6.140;2023-06-14T09:55:40;94693.63;;;22.61;42.07
21838;BME280;11081;45.946;6.140;2023-06-14T09:58:10;94689.00;;;22.75;41.30
21838;BME280;11081;45.946;6.140;2023-06-14T10:00:39;94694.31;;;22.75;41.74
21838;BME280;11081;45.946;6.140;2023-06-14T10:03:13;94695.72;;;22.81;40.92
21838;BME280;11081;45.946;6.140;2023-06-14T10:05:44;94702.50;;;22.87;40.74
21838;BME280;11081;45.946;6.140;2023-06-14T10:08:14;94696.84;;;22.80;40.88
21838;BME280;11081;45.946;6.140;2023-06-14T10:10:44;94701.88;;;22.90;42.09
21838;BME280;11081;45.946;6.140;2023-06-14T10:13:12;94700.38;;;23.06;42.10
21838;BME280;11081;45.946;6.140;2023-06-14T10:15:48;94698.81;;;23.05;40.05
21838;BME280;11081;45.946;6.140;2023-06-14T10:18:26;94691.75;;;23.01;42.00
21838;BME280;11081;45.946;6.140;2023-06-14T10:21:04;94690.03;;;22.96;40.96
21838;BME280;11081;45.946;6.140;2023-06-14T10:23:37;94691.13;;;23.04;42.28
21838;BME280;11081;45.946;6.140;2023-06-14T10:26:07;94691.75;;;23.09;43.06
21838;BME280;11081;45.946;6.140;2023-06-14T10:28:37;94691.91;;;23.04;41.82
21838;BME280;11081;45.946;6.140;2023-06-14T10:31:07;94683.41;;;22.85;41.65
21838;BME280;11081;45.946;6.140;2023-06-14T10:33:38;94675.53;;;22.80;42.58
21838;BME280;11081;45.946;6.140;2023-06-14T10:36:26;94680.81;;;22.63;40.08
21838;BME280;11081;45.946;6.140;2023-06-14T10:38:58;94683.06;;;22.78;39.62
21838;BME280;11081;45.946;6.140;2023-06-14T10:41:27;94682.09;;;22.74;39.77
21838;BME280;11081;45.946;6.140;2023-06-14T10:47:21;94684.88;;;22.69;39.95
21838;BME280;11081;45.946;6.140;2023-06-14T10:49:53;94683.41;;;22.85;39.91
21838;BME280;11081;45.946;6.140;2023-06-14T10:52:24;94689.56;;;22.94;40.09
21838;BME280;11081;45.946;6.140;2023-06-14T10:55:02;94694.41;;;23.09;42.17
21838;BME280;11081;45.946;6.140;2023-06-14T10:57:33;94696.47;;;23.13;40.69
21838;BME280;11081;45.946;6.140;2023-06-14T11:00:05;94690.03;;;22.96;39.83
21838;BME280;11081;45.946;6.140;2023-06-14T11:05:43;94683.94;;;23.13;38.76
21838;BME280;11081;45.946;6.140;2023-06-14T11:11:22;94688.16;;;23.05;40.31
21838;BME280;11081;45.946;6.140;2023-06-14T11:13:51;94691.94;;;23.22;40.62
21838;BME280;11081;45.946;6.140;2023-06-14T11:16:25;94690.66;;;23.10;38.82
21838;BME280;11081;45.946;6.140;2023-06-14T11:18:54;94693.50;;;23.23;40.74
21838;BME280;11081;45.946;6.140;2023-06-14T11:21:24;94679.75;;;23.38;39.66
21838;BME280;11081;45.946;6.140;2023-06-14T11:23:59;94680.06;;;23.45;39.32
21838;BME280;11081;45.946;6.140;2023-06-14T11:26:28;94674.41;;;23.38;40.71
21838;BME280;11081;45.946;6.140;2023-06-14T11:28:57;94691.19;;;23.38;39.82
21838;BME280;11081;45.946;6.140;2023-06-14T11:31:26;94673.97;;;23.53;38.95
21838;BME280;11081;45.946;6.140;2023-06-14T11:33:55;94686.66;;;23.73;40.81
21838;BME280;11081;45.946;6.140;2023-06-14T11:36:26;94686.81;;;23.86;39.46
21838;BME280;11081;45.946;6.140;2023-06-14T11:39:02;94679.94;;;23.76;37.16
21838;BME280;11081;45.946;6.140;2023-06-14T11:41:34;94677.88;;;23.64;38.58
21838;BME280;11081;45.946;6.140;2023-06-14T11:44:03;94676.63;;;23.70;37.46
21838;BME280;11081;45.946;6.140;2023-06-14T11:46:31;94671.28;;;23.88;37.53
21838;BME280;11081;45.946;6.140;2023-06-14T11:48:59;94670.97;;;23.98;37.89
21838;BME280;11081;45.946;6.140;2023-06-14T11:51:30;94672.81;;;24.06;35.61
21838;BME280;11081;45.946;6.140;2023-06-14T11:53:58;94675.16;;;24.08;36.71
21838;BME280;11081;45.946;6.140;2023-06-14T11:56:28;94669.03;;;24.16;37.46
21838;BME280;11081;45.946;6.140;2023-06-14T11:58:56;94668.06;;;24.20;36.17
21838;BME280;11081;45.946;6.140;2023-06-14T12:01:25;94663.03;;;24.27;35.41
21838;BME280;11081;45.946;6.140;2023-06-14T12:03:54;94674.00;;;24.35;35.03
21838;BME280;11081;45.946;6.140;2023-06-14T12:06:29;94672.16;;;24.09;30.15
21838;BME280;11081;45.946;6.140;2023-06-14T12:09:03;94671.72;;;24.16;32.69
21838;BME280;11081;45.946;6.140;2023-06-14T12:11:35;94659.91;;;24.25;32.14
21838;BME280;11081;45.946;6.140;2023-06-14T12:14:04;94677.47;;;24.26;32.88
21838;BME280;11081;45.946;6.140;2023-06-14T12:16:34;94667.09;;;24.33;33.37
21838;BME280;11081;45.946;6.140;2023-06-14T12:19:12;94665.66;;;24.45;30.84
21838;BME280;11081;45.946;6.140;2023-06-14T12:21:41;94660.34;;;24.45;31.31
21838;BME280;11081;45.946;6.140;2023-06-14T12:24:09;94654.22;;;24.36;31.53
21838;BME280;11081;45.946;6.140;2023-06-14T12:26:42;94664.28;;;24.39;32.48
21838;BME280;11081;45.946;6.140;2023-06-14T12:29:10;94654.53;;;24.43;33.85
21838;BME280;11081;45.946;6.140;2023-06-14T12:31:39;94650.50;;;24.37;35.01
21838;BME280;11081;45.946;6.140;2023-06-14T12:34:08;94651.09;;;24.33;35.54
21838;BME280;11081;45.946;6.140;2023-06-14T12:36:36;94655.81;;;24.37;37.06
21838;BME280;11081;45.946;6.140;2023-06-14T12:39:08;94653.25;;;24.49;37.10
21838;BME280;11081;45.946;6.140;2023-06-14T12:41:36;94663.00;;;24.45;37.84
21838;BME280;11081;45.946;6.140;2023-06-14T12:44:06;94646.22;;;24.36;36.18
21838;BME280;11081;45.946;6.140;2023-06-14T12:46:34;94649.84;;;24.40;36.30
21838;BME280;11081;45.946;6.140;2023-06-14T12:49:03;94651.41;;;24.41;35.87
21838;BME280;11081;45.946;6.140;2023-06-14T12:51:32;94651.69;;;24.48;36.45
21838;BME280;11081;45.946;6.140;2023-06-14T12:54:00;94651.16;;;24.54;35.81
21838;BME280;11081;45.946;6.140;2023-06-14T12:56:28;94654.16;;;24.53;35.95
21838;BME280;11081;45.946;6.140;2023-06-14T12:58:56;94653.25;;;24.49;35.44
21838;BME280;11081;45.946;6.140;2023-06-14T13:01:25;94646.00;;;24.58;36.41
21838;BME280;11081;45.946;6.140;2023-06-14T13:03:53;94661.91;;;24.75;36.17
21838;BME280;11081;45.946;6.140;2023-06-14T13:06:22;94656.94;;;24.65;34.68
21838;BME280;11081;45.946;6.140;2023-06-14T13:08:51;94646.91;;;24.62;35.40
21838;BME280;11081;45.946;6.140;2023-06-14T13:11:21;94662.56;;;24.72;34.86
21838;BME280;11081;45.946;6.140;2023-06-14T13:13:49;94651.97;;;24.84;35.33
21838;BME280;11081;45.946;6.140;2023-06-14T13:16:17;94666.50;;;24.96;34.74
21838;BME280;11081;45.946;6.140;2023-06-14T13:18:47;94656.28;;;25.06;34.83
21838;BME280;11081;45.946;6.140;2023-06-14T13:21:15;94664.50;;;25.22;35.31
21838;BME280;11081;45.946;6.140;2023-06-14T13:23:43;94664.34;;;25.18;33.82